Van Horn, Texas
Current Conditions -  °F | °C
As of 12:51 PM on Thursday 27 Nov 2014 (Local Time) from KGDP Reporting Station
Clear Clear  
Wind Chill: 16°   Ceiling: Unl
Heat Index: 16°   Visibility: 10mi
Dew Point: -5°   Wind: 10mph
Humidity: 24%   Direction: 240°WSW
Pressure: 30.41"   Gusts: NA
Location:  31.04°N, 104.83°W
Report Text: KGDP 271851Z AUTO 24009KT 10SM CLR 16/M05 A3041 RMK AO2 SLP263 T01561050
Loading
Personal Weather Stations






























Interactive Weather Map New forecast layout! Learn more

10-Day Weather Forecast

Advertisements
Track Severe Weather on mobile